CheckWX is a tool to help pilots better visualize weather data.  It is not intended as a substitute for an official pre-flight weather briefing.

06:09:49 UTC

KBJJ METAR
Wayne County Airport
Wooster, Ohio, USA
Current

14 mins ago

KBJJ 230556Z AUTO 19006KT 10SM CLR 14/08 A3005 RMK AO2 SLP176 T01390083 10172 20111 58010
Observed
Apr-23 @ 05:56 UTC
Wind
  • 190° at 6 KTS
Visibility
10 SM
Flight Rules
VFR
Cloud Levels
  • Clear skies
Temperature
14°C / 57°F
Dewpoint
C / 46°F
Humidity
67%
Altimeter
30.05" Hg
Pressure
1017.62 hPa
Previous

1 hour ago

KBJJ 230456Z AUTO 16003KT 10SM CLR 13/08 A3007 RMK AO2 SLP183 T01280083 402000022
Observed
Apr-23 @ 04:56 UTC
Wind
  • 160° at 3 KTS
Visibility
10 SM
Flight Rules
VFR
Cloud Levels
  • Clear skies
Temperature
13°C / 55°F
Dewpoint
C / 46°F
Humidity
72%
Altimeter
30.07" Hg
Pressure
1018.32 hPa
Previous

2 hours ago

KBJJ 230356Z AUTO 00000KT 10SM CLR 13/09 A3008 RMK AO2 SLP184 T01330089
Observed
Apr-23 @ 03:56 UTC
Visibility
10 SM
Flight Rules
VFR
Cloud Levels
  • Clear skies
Temperature
13°C / 55°F
Dewpoint
C / 48°F
Humidity
77%
Altimeter
30.08" Hg
Pressure
1018.62 hPa